sensor_id;sensor_type;location;lat;lon;timestamp;P1;durP1;ratioP1;P2;durP2;ratioP2
68931;SDS011;55970;50.064;8.228;2022-08-14T00:02:22;3.00;;;2.50;;
68931;SDS011;55970;50.064;8.228;2022-08-14T00:04:47;3.15;;;2.85;;
68931;SDS011;55970;50.064;8.228;2022-08-14T00:07:13;3.15;;;2.70;;
68931;SDS011;55970;50.064;8.228;2022-08-14T00:09:39;2.55;;;2.35;;
68931;SDS011;55970;50.064;8.228;2022-08-14T00:12:04;2.80;;;2.53;;
68931;SDS011;55970;50.064;8.228;2022-08-14T00:14:30;2.70;;;2.50;;
68931;SDS011;55970;50.064;8.228;2022-08-14T00:16:56;2.92;;;2.17;;
68931;SDS011;55970;50.064;8.228;2022-08-14T00:19:22;3.28;;;2.45;;
68931;SDS011;55970;50.064;8.228;2022-08-14T00:21:48;3.00;;;2.70;;
68931;SDS011;55970;50.064;8.228;2022-08-14T00:24:14;3.00;;;2.70;;
68931;SDS011;55970;50.064;8.228;2022-08-14T00:26:40;2.60;;;2.40;;
68931;SDS011;55970;50.064;8.228;2022-08-14T00:29:05;2.88;;;2.60;;
68931;SDS011;55970;50.064;8.228;2022-08-14T00:31:30;2.83;;;2.60;;
68931;SDS011;55970;50.064;8.228;2022-08-14T00:33:56;2.33;;;2.20;;
68931;SDS011;55970;50.064;8.228;2022-08-14T00:36:22;3.00;;;2.40;;
68931;SDS011;55970;50.064;8.228;2022-08-14T00:38:48;2.63;;;2.42;;
68931;SDS011;55970;50.064;8.228;2022-08-14T00:41:13;3.50;;;2.53;;
68931;SDS011;55970;50.064;8.228;2022-08-14T00:43:38;3.03;;;2.78;;
68931;SDS011;55970;50.064;8.228;2022-08-14T00:46:05;2.55;;;2.35;;
68931;SDS011;55970;50.064;8.228;2022-08-14T00:50:59;2.85;;;2.58;;
68931;SDS011;55970;50.064;8.228;2022-08-14T00:53:24;3.53;;;2.30;;
68931;SDS011;55970;50.064;8.228;2022-08-14T00:55:51;2.55;;;2.35;;
68931;SDS011;55970;50.064;8.228;2022-08-14T00:58:19;2.97;;;2.70;;
68931;SDS011;55970;50.064;8.228;2022-08-14T01:01:07;2.67;;;2.47;;
68931;SDS011;55970;50.064;8.228;2022-08-14T01:03:36;2.78;;;2.40;;
68931;SDS011;55970;50.064;8.228;2022-08-14T01:06:06;2.92;;;2.72;;
68931;SDS011;55970;50.064;8.228;2022-08-14T01:08:33;2.90;;;2.60;;
68931;SDS011;55970;50.064;8.228;2022-08-14T01:10:59;2.72;;;2.53;;
68931;SDS011;55970;50.064;8.228;2022-08-14T01:13:30;3.33;;;2.97;;
68931;SDS011;55970;50.064;8.228;2022-08-14T01:15:58;4.25;;;2.88;;
68931;SDS011;55970;50.064;8.228;2022-08-14T01:18:26;2.78;;;2.58;;
68931;SDS011;55970;50.064;8.228;2022-08-14T01:21:11;4.45;;;2.72;;
68931;SDS011;55970;50.064;8.228;2022-08-14T01:23:40;3.20;;;2.90;;
68931;SDS011;55970;50.064;8.228;2022-08-14T01:26:10;3.38;;;3.08;;
68931;SDS011;55970;50.064;8.228;2022-08-14T01:28:37;3.45;;;2.75;;
68931;SDS011;55970;50.064;8.228;2022-08-14T01:31:07;2.92;;;2.70;;
68931;SDS011;55970;50.064;8.228;2022-08-14T01:33:43;3.22;;;2.95;;
68931;SDS011;55970;50.064;8.228;2022-08-14T01:36:12;2.92;;;2.63;;
68931;SDS011;55970;50.064;8.228;2022-08-14T01:38:40;3.13;;;2.90;;
68931;SDS011;55970;50.064;8.228;2022-08-14T01:41:08;2.95;;;2.75;;
68931;SDS011;55970;50.064;8.228;2022-08-14T01:46:12;3.20;;;2.90;;
68931;SDS011;55970;50.064;8.228;2022-08-14T01:48:48;2.80;;;2.60;;
68931;SDS011;55970;50.064;8.228;2022-08-14T01:51:16;3.20;;;2.90;;
68931;SDS011;55970;50.064;8.228;2022-08-14T01:53:46;3.13;;;2.85;;
68931;SDS011;55970;50.064;8.228;2022-08-14T01:56:14;3.30;;;3.00;;
68931;SDS011;55970;50.064;8.228;2022-08-14T01:58:45;3.42;;;3.00;;
68931;SDS011;55970;50.064;8.228;2022-08-14T02:03:42;3.25;;;2.97;;
68931;SDS011;55970;50.064;8.228;2022-08-14T02:06:08;3.20;;;2.90;;
68931;SDS011;55970;50.064;8.228;2022-08-14T02:08:35;3.38;;;3.08;;
68931;SDS011;55970;50.064;8.228;2022-08-14T02:11:03;3.10;;;2.85;;
68931;SDS011;55970;50.064;8.228;2022-08-14T02:13:43;3.80;;;3.28;;
68931;SDS011;55970;50.064;8.228;2022-08-14T02:16:11;3.45;;;3.15;;
68931;SDS011;55970;50.064;8.228;2022-08-14T02:18:40;3.47;;;3.17;;
68931;SDS011;55970;50.064;8.228;2022-08-14T02:21:06;3.30;;;3.00;;
68931;SDS011;55970;50.064;8.228;2022-08-14T02:23:32;3.90;;;3.20;;
68931;SDS011;55970;50.064;8.228;2022-08-14T02:25:58;3.20;;;2.90;;
68931;SDS011;55970;50.064;8.228;2022-08-14T02:28:26;4.40;;;2.90;;
68931;SDS011;55970;50.064;8.228;2022-08-14T02:30:54;3.80;;;3.17;;
68931;SDS011;55970;50.064;8.228;2022-08-14T02:33:20;3.58;;;3.28;;
68931;SDS011;55970;50.064;8.228;2022-08-14T02:35:47;3.53;;;3.22;;
68931;SDS011;55970;50.064;8.228;2022-08-14T02:38:12;3.60;;;3.10;;
68931;SDS011;55970;50.064;8.228;2022-08-14T02:40:38;4.20;;;3.22;;
68931;SDS011;55970;50.064;8.228;2022-08-14T02:43:03;3.60;;;3.22;;
68931;SDS011;55970;50.064;8.228;2022-08-14T02:45:30;3.13;;;2.92;;
68931;SDS011;55970;50.064;8.228;2022-08-14T02:50:27;3.15;;;2.90;;
68931;SDS011;55970;50.064;8.228;2022-08-14T02:52:53;3.50;;;3.20;;
68931;SDS011;55970;50.064;8.228;2022-08-14T02:55:19;3.53;;;3.22;;
68931;SDS011;55970;50.064;8.228;2022-08-14T02:57:44;3.47;;;3.15;;
68931;SDS011;55970;50.064;8.228;2022-08-14T03:00:11;4.20;;;3.40;;
68931;SDS011;55970;50.064;8.228;2022-08-14T03:02:37;4.10;;;3.70;;
68931;SDS011;55970;50.064;8.228;2022-08-14T03:05:03;3.83;;;3.25;;
68931;SDS011;55970;50.064;8.228;2022-08-14T03:07:29;3.90;;;3.60;;
68931;SDS011;55970;50.064;8.228;2022-08-14T03:09:54;4.07;;;3.63;;
68931;SDS011;55970;50.064;8.228;2022-08-14T03:12:20;3.55;;;3.20;;
68931;SDS011;55970;50.064;8.228;2022-08-14T03:14:46;4.25;;;3.67;;
68931;SDS011;55970;50.064;8.228;2022-08-14T03:17:15;3.55;;;3.25;;
68931;SDS011;55970;50.064;8.228;2022-08-14T03:19:41;4.03;;;3.60;;
68931;SDS011;55970;50.064;8.228;2022-08-14T03:22:06;4.28;;;3.58;;
68931;SDS011;55970;50.064;8.228;2022-08-14T03:24:32;4.18;;;3.78;;
68931;SDS011;55970;50.064;8.228;2022-08-14T03:26:58;3.97;;;3.60;;
68931;SDS011;55970;50.064;8.228;2022-08-14T03:29:23;4.57;;;3.90;;
68931;SDS011;55970;50.064;8.228;2022-08-14T03:31:51;4.53;;;3.78;;
68931;SDS011;55970;50.064;8.228;2022-08-14T03:34:17;4.10;;;3.63;;
68931;SDS011;55970;50.064;8.228;2022-08-14T03:36:43;4.00;;;3.70;;
68931;SDS011;55970;50.064;8.228;2022-08-14T03:39:09;4.00;;;3.58;;
68931;SDS011;55970;50.064;8.228;2022-08-14T03:41:36;4.97;;;3.63;;
68931;SDS011;55970;50.064;8.228;2022-08-14T03:44:03;5.65;;;3.78;;
68931;SDS011;55970;50.064;8.228;2022-08-14T03:46:30;4.13;;;3.78;;
68931;SDS011;55970;50.064;8.228;2022-08-14T03:48:58;3.92;;;3.55;;
68931;SDS011;55970;50.064;8.228;2022-08-14T03:51:28;4.75;;;3.80;;
68931;SDS011;55970;50.064;8.228;2022-08-14T03:53:55;4.00;;;3.70;;
68931;SDS011;55970;50.064;8.228;2022-08-14T03:56:21;4.30;;;3.40;;
68931;SDS011;55970;50.064;8.228;2022-08-14T03:58:51;4.13;;;3.72;;
68931;SDS011;55970;50.064;8.228;2022-08-14T04:01:19;3.95;;;3.65;;
68931;SDS011;55970;50.064;8.228;2022-08-14T04:03:47;4.30;;;3.90;;
68931;SDS011;55970;50.064;8.228;2022-08-14T04:06:14;4.05;;;3.65;;
68931;SDS011;55970;50.064;8.228;2022-08-14T04:08:40;4.00;;;3.70;;
68931;SDS011;55970;50.064;8.228;2022-08-14T04:11:07;3.97;;;3.58;;
68931;SDS011;55970;50.064;8.228;2022-08-14T04:13:36;4.47;;;3.80;;
68931;SDS011;55970;50.064;8.228;2022-08-14T04:16:04;3.95;;;3.60;;
68931;SDS011;55970;50.064;8.228;2022-08-14T04:18:32;4.78;;;4.18;;
68931;SDS011;55970;50.064;8.228;2022-08-14T04:20:57;4.57;;;3.60;;
68931;SDS011;55970;50.064;8.228;2022-08-14T04:23:23;4.38;;;3.97;;
68931;SDS011;55970;50.064;8.228;2022-08-14T04:25:49;4.40;;;3.53;;
68931;SDS011;55970;50.064;8.228;2022-08-14T04:28:18;4.65;;;3.55;;
68931;SDS011;55970;50.064;8.228;2022-08-14T04:30:45;4.40;;;4.00;;
68931;SDS011;55970;50.064;8.228;2022-08-14T04:33:10;4.20;;;3.80;;
68931;SDS011;55970;50.064;8.228;2022-08-14T04:35:36;4.10;;;3.70;;
68931;SDS011;55970;50.064;8.228;2022-08-14T04:38:05;4.40;;;4.00;;
68931;SDS011;55970;50.064;8.228;2022-08-14T04:40:50;4.65;;;4.05;;
68931;SDS011;55970;50.064;8.228;2022-08-14T04:43:34;4.38;;;3.83;;
68931;SDS011;55970;50.064;8.228;2022-08-14T04:46:00;4.57;;;3.92;;
68931;SDS011;55970;50.064;8.228;2022-08-14T04:48:27;3.97;;;3.67;;
68931;SDS011;55970;50.064;8.228;2022-08-14T04:50:53;4.40;;;4.00;;
68931;SDS011;55970;50.064;8.228;2022-08-14T04:53:24;5.93;;;4.10;;
68931;SDS011;55970;50.064;8.228;2022-08-14T04:55:51;4.28;;;3.88;;
68931;SDS011;55970;50.064;8.228;2022-08-14T04:58:17;3.80;;;3.45;;
68931;SDS011;55970;50.064;8.228;2022-08-14T05:00:45;4.15;;;3.80;;
68931;SDS011;55970;50.064;8.228;2022-08-14T05:03:14;4.80;;;4.38;;
68931;SDS011;55970;50.064;8.228;2022-08-14T05:05:40;4.85;;;4.10;;
68931;SDS011;55970;50.064;8.228;2022-08-14T05:08:07;4.60;;;4.20;;
68931;SDS011;55970;50.064;8.228;2022-08-14T05:10:36;4.72;;;4.32;;
68931;SDS011;55970;50.064;8.228;2022-08-14T05:13:03;4.72;;;4.32;;
68931;SDS011;55970;50.064;8.228;2022-08-14T05:15:29;4.82;;;4.18;;
68931;SDS011;55970;50.064;8.228;2022-08-14T05:17:56;4.60;;;4.13;;
68931;SDS011;55970;50.064;8.228;2022-08-14T05:20:22;4.40;;;4.00;;
68931;SDS011;55970;50.064;8.228;2022-08-14T05:22:48;4.40;;;4.00;;
68931;SDS011;55970;50.064;8.228;2022-08-14T05:25:13;3.88;;;3.58;;
68931;SDS011;55970;50.064;8.228;2022-08-14T05:27:39;5.13;;;4.00;;
68931;SDS011;55970;50.064;8.228;2022-08-14T05:30:04;4.35;;;3.95;;
68931;SDS011;55970;50.064;8.228;2022-08-14T05:32:30;4.30;;;3.80;;
68931;SDS011;55970;50.064;8.228;2022-08-14T05:34:56;4.22;;;3.78;;
68931;SDS011;55970;50.064;8.228;2022-08-14T05:37:23;4.55;;;3.90;;
68931;SDS011;55970;50.064;8.228;2022-08-14T05:39:48;4.07;;;3.65;;
68931;SDS011;55970;50.064;8.228;2022-08-14T05:42:14;4.70;;;4.30;;
68931;SDS011;55970;50.064;8.228;2022-08-14T05:44:41;4.50;;;4.07;;
68931;SDS011;55970;50.064;8.228;2022-08-14T05:47:06;4.50;;;4.10;;
68931;SDS011;55970;50.064;8.228;2022-08-14T05:49:31;4.63;;;4.22;;
68931;SDS011;55970;50.064;8.228;2022-08-14T05:51:57;6.35;;;4.47;;
68931;SDS011;55970;50.064;8.228;2022-08-14T05:54:22;6.25;;;4.45;;
68931;SDS011;55970;50.064;8.228;2022-08-14T05:56:47;5.30;;;4.80;;
68931;SDS011;55970;50.064;8.228;2022-08-14T05:59:13;4.65;;;4.25;;
68931;SDS011;55970;50.064;8.228;2022-08-14T06:01:39;5.03;;;4.53;;
68931;SDS011;55970;50.064;8.228;2022-08-14T06:04:04;4.95;;;4.45;;
68931;SDS011;55970;50.064;8.228;2022-08-14T06:06:29;5.40;;;4.60;;
68931;SDS011;55970;50.064;8.228;2022-08-14T06:08:55;5.60;;;4.85;;
68931;SDS011;55970;50.064;8.228;2022-08-14T06:11:20;5.85;;;4.78;;
68931;SDS011;55970;50.064;8.228;2022-08-14T06:13:45;5.80;;;4.70;;
68931;SDS011;55970;50.064;8.228;2022-08-14T06:16:13;5.22;;;4.53;;
68931;SDS011;55970;50.064;8.228;2022-08-14T06:18:40;6.43;;;5.03;;
68931;SDS011;55970;50.064;8.228;2022-08-14T06:21:05;6.13;;;4.70;;
68931;SDS011;55970;50.064;8.228;2022-08-14T06:23:31;5.72;;;4.53;;
68931;SDS011;55970;50.064;8.228;2022-08-14T06:25:56;5.50;;;5.00;;
68931;SDS011;55970;50.064;8.228;2022-08-14T06:28:22;5.05;;;4.60;;
68931;SDS011;55970;50.064;8.228;2022-08-14T06:30:50;5.22;;;4.72;;
68931;SDS011;55970;50.064;8.228;2022-08-14T06:33:16;5.47;;;4.90;;
68931;SDS011;55970;50.064;8.228;2022-08-14T06:35:42;5.13;;;4.72;;
68931;SDS011;55970;50.064;8.228;2022-08-14T06:38:08;5.72;;;5.13;;
68931;SDS011;55970;50.064;8.228;2022-08-14T06:40:39;6.25;;;5.65;;
68931;SDS011;55970;50.064;8.228;2022-08-14T06:43:05;6.27;;;5.43;;
68931;SDS011;55970;50.064;8.228;2022-08-14T06:45:33;5.93;;;5.10;;
68931;SDS011;55970;50.064;8.228;2022-08-14T06:48:00;5.70;;;5.20;;
68931;SDS011;55970;50.064;8.228;2022-08-14T06:50:26;6.20;;;5.60;;
68931;SDS011;55970;50.064;8.228;2022-08-14T06:52:53;5.40;;;4.90;;
68931;SDS011;55970;50.064;8.228;2022-08-14T06:55:19;6.25;;;5.63;;
68931;SDS011;55970;50.064;8.228;2022-08-14T06:57:45;6.70;;;6.00;;
68931;SDS011;55970;50.064;8.228;2022-08-14T07:00:17;6.68;;;5.28;;
68931;SDS011;55970;50.064;8.228;2022-08-14T07:02:43;6.20;;;5.60;;
68931;SDS011;55970;50.064;8.228;2022-08-14T07:05:28;5.97;;;5.40;;
68931;SDS011;55970;50.064;8.228;2022-08-14T07:08:14;6.00;;;5.40;;
68931;SDS011;55970;50.064;8.228;2022-08-14T07:10:41;5.72;;;5.22;;
68931;SDS011;55970;50.064;8.228;2022-08-14T07:13:08;7.00;;;6.15;;
68931;SDS011;55970;50.064;8.228;2022-08-14T07:15:35;6.68;;;5.78;;
68931;SDS011;55970;50.064;8.228;2022-08-14T07:18:01;6.63;;;6.03;;
68931;SDS011;55970;50.064;8.228;2022-08-14T07:20:27;6.07;;;5.50;;
68931;SDS011;55970;50.064;8.228;2022-08-14T07:22:54;6.22;;;5.43;;
68931;SDS011;55970;50.064;8.228;2022-08-14T07:25:24;6.00;;;5.50;;
68931;SDS011;55970;50.064;8.228;2022-08-14T07:27:50;5.90;;;5.40;;
68931;SDS011;55970;50.064;8.228;2022-08-14T07:30:16;6.68;;;5.60;;
68931;SDS011;55970;50.064;8.228;2022-08-14T07:32:41;7.75;;;5.40;;
68931;SDS011;55970;50.064;8.228;2022-08-14T07:35:07;5.72;;;5.20;;
68931;SDS011;55970;50.064;8.228;2022-08-14T07:37:32;6.20;;;5.60;;
68931;SDS011;55970;50.064;8.228;2022-08-14T07:39:58;5.53;;;5.03;;
68931;SDS011;55970;50.064;8.228;2022-08-14T07:42:23;5.75;;;5.22;;
68931;SDS011;55970;50.064;8.228;2022-08-14T07:44:49;6.20;;;5.60;;
68931;SDS011;55970;50.064;8.228;2022-08-14T07:47:15;7.43;;;5.70;;
68931;SDS011;55970;50.064;8.228;2022-08-14T07:49:40;7.68;;;5.70;;
68931;SDS011;55970;50.064;8.228;2022-08-14T07:52:06;6.28;;;5.10;;
68931;SDS011;55970;50.064;8.228;2022-08-14T07:54:31;6.53;;;5.80;;
68931;SDS011;55970;50.064;8.228;2022-08-14T07:56:57;6.88;;;5.53;;
68931;SDS011;55970;50.064;8.228;2022-08-14T07:59:23;7.43;;;5.80;;
68931;SDS011;55970;50.064;8.228;2022-08-14T08:01:49;6.28;;;5.68;;
68931;SDS011;55970;50.064;8.228;2022-08-14T08:04:15;6.20;;;5.60;;
68931;SDS011;55970;50.064;8.228;2022-08-14T08:06:41;6.55;;;4.90;;
68931;SDS011;55970;50.064;8.228;2022-08-14T08:09:06;5.43;;;4.93;;
68931;SDS011;55970;50.064;8.228;2022-08-14T08:11:34;5.97;;;5.20;;
68931;SDS011;55970;50.064;8.228;2022-08-14T08:14:02;7.28;;;5.90;;
68931;SDS011;55970;50.064;8.228;2022-08-14T08:16:33;5.47;;;5.03;;
68931;SDS011;55970;50.064;8.228;2022-08-14T08:19:00;6.07;;;5.47;;
68931;SDS011;55970;50.064;8.228;2022-08-14T08:21:26;6.03;;;5.43;;
68931;SDS011;55970;50.064;8.228;2022-08-14T08:23:51;5.90;;;5.30;;
68931;SDS011;55970;50.064;8.228;2022-08-14T08:26:18;7.03;;;5.40;;
68931;SDS011;55970;50.064;8.228;2022-08-14T08:28:43;6.03;;;5.43;;
68931;SDS011;55970;50.064;8.228;2022-08-14T08:31:19;5.80;;;5.30;;
68931;SDS011;55970;50.064;8.228;2022-08-14T08:33:49;6.15;;;5.60;;
68931;SDS011;55970;50.064;8.228;2022-08-14T08:36:16;5.47;;;4.93;;
68931;SDS011;55970;50.064;8.228;2022-08-14T08:38:42;6.05;;;5.45;;
68931;SDS011;55970;50.064;8.228;2022-08-14T08:41:08;6.25;;;5.30;;
68931;SDS011;55970;50.064;8.228;2022-08-14T08:43:34;6.20;;;5.60;;
68931;SDS011;55970;50.064;8.228;2022-08-14T08:48:26;6.00;;;5.40;;
68931;SDS011;55970;50.064;8.228;2022-08-14T08:50:57;6.20;;;5.60;;
68931;SDS011;55970;50.064;8.228;2022-08-14T08:53:31;6.15;;;5.55;;
68931;SDS011;55970;50.064;8.228;2022-08-14T08:55:57;6.00;;;5.40;;
68931;SDS011;55970;50.064;8.228;2022-08-14T08:58:23;8.50;;;5.43;;
68931;SDS011;55970;50.064;8.228;2022-08-14T09:00:50;6.30;;;5.60;;
68931;SDS011;55970;50.064;8.228;2022-08-14T09:03:20;6.17;;;5.60;;
68931;SDS011;55970;50.064;8.228;2022-08-14T09:08:21;5.60;;;5.10;;
68931;SDS011;55970;50.064;8.228;2022-08-14T09:10:51;6.72;;;4.90;;
68931;SDS011;55970;50.064;8.228;2022-08-14T09:13:19;5.88;;;5.13;;
68931;SDS011;55970;50.064;8.228;2022-08-14T09:15:47;5.78;;;5.22;;
68931;SDS011;55970;50.064;8.228;2022-08-14T09:18:14;6.13;;;5.45;;
68931;SDS011;55970;50.064;8.228;2022-08-14T09:20:42;6.20;;;5.60;;
68931;SDS011;55970;50.064;8.228;2022-08-14T09:23:13;5.93;;;5.20;;
68931;SDS011;55970;50.064;8.228;2022-08-14T09:25:39;5.40;;;4.90;;
68931;SDS011;55970;50.064;8.228;2022-08-14T09:28:07;7.50;;;5.20;;
68931;SDS011;55970;50.064;8.228;2022-08-14T09:30:34;5.65;;;5.15;;
68931;SDS011;55970;50.064;8.228;2022-08-14T09:47:10;5.90;;;5.30;;
68931;SDS011;55970;50.064;8.228;2022-08-14T09:49:37;5.70;;;5.13;;
68931;SDS011;55970;50.064;8.228;2022-08-14T09:54:35;6.23;;;5.30;;
68931;SDS011;55970;50.064;8.228;2022-08-14T09:57:03;5.30;;;4.80;;
68931;SDS011;55970;50.064;8.228;2022-08-14T09:59:38;5.70;;;5.03;;
68931;SDS011;55970;50.064;8.228;2022-08-14T10:02:16;6.43;;;5.32;;
68931;SDS011;55970;50.064;8.228;2022-08-14T10:04:46;5.00;;;4.50;;
68931;SDS011;55970;50.064;8.228;2022-08-14T10:07:28;5.30;;;4.80;;
68931;SDS011;55970;50.064;8.228;2022-08-14T10:09:58;5.25;;;4.75;;
68931;SDS011;55970;50.064;8.228;2022-08-14T10:12:25;5.97;;;5.38;;
68931;SDS011;55970;50.064;8.228;2022-08-14T10:14:54;5.40;;;4.80;;
68931;SDS011;55970;50.064;8.228;2022-08-14T10:17:22;5.37;;;4.80;;
68931;SDS011;55970;50.064;8.228;2022-08-14T10:19:51;5.22;;;4.70;;
68931;SDS011;55970;50.064;8.228;2022-08-14T10:22:22;6.88;;;4.80;;
68931;SDS011;55970;50.064;8.228;2022-08-14T10:24:52;6.13;;;5.10;;
68931;SDS011;55970;50.064;8.228;2022-08-14T10:27:20;5.32;;;4.82;;
68931;SDS011;55970;50.064;8.228;2022-08-14T10:29:56;5.78;;;5.05;;
68931;SDS011;55970;50.064;8.228;2022-08-14T10:32:24;5.30;;;4.78;;
68931;SDS011;55970;50.064;8.228;2022-08-14T10:34:50;5.18;;;4.68;;
68931;SDS011;55970;50.064;8.228;2022-08-14T10:37:35;4.65;;;4.18;;
68931;SDS011;55970;50.064;8.228;2022-08-14T10:40:02;5.28;;;4.78;;
68931;SDS011;55970;50.064;8.228;2022-08-14T10:42:35;5.35;;;4.82;;
68931;SDS011;55970;50.064;8.228;2022-08-14T10:45:02;4.82;;;4.43;;
68931;SDS011;55970;50.064;8.228;2022-08-14T10:47:34;5.55;;;4.85;;
68931;SDS011;55970;50.064;8.228;2022-08-14T10:50:03;5.18;;;4.75;;
68931;SDS011;55970;50.064;8.228;2022-08-14T10:52:30;5.18;;;4.78;;
68931;SDS011;55970;50.064;8.228;2022-08-14T10:55:59;4.95;;;4.55;;
68931;SDS011;55970;50.064;8.228;2022-08-14T10:57:58;5.10;;;4.55;;
68931;SDS011;55970;50.064;8.228;2022-08-14T11:00:26;5.57;;;5.07;;
68931;SDS011;55970;50.064;8.228;2022-08-14T11:03:02;4.82;;;4.43;;
68931;SDS011;55970;50.064;8.228;2022-08-14T11:05:40;4.80;;;4.40;;
68931;SDS011;55970;50.064;8.228;2022-08-14T11:08:08;4.60;;;4.20;;
68931;SDS011;55970;50.064;8.228;2022-08-14T11:13:32;4.75;;;4.35;;
68931;SDS011;55970;50.064;8.228;2022-08-14T11:15:58;5.57;;;4.70;;
68931;SDS011;55970;50.064;8.228;2022-08-14T11:18:26;4.88;;;4.38;;
68931;SDS011;55970;50.064;8.228;2022-08-14T11:20:54;4.93;;;4.45;;
68931;SDS011;55970;50.064;8.228;2022-08-14T11:23:25;4.32;;;3.97;;
68931;SDS011;55970;50.064;8.228;2022-08-14T11:25:52;4.70;;;4.30;;
68931;SDS011;55970;50.064;8.228;2022-08-14T11:28:21;4.88;;;4.45;;
68931;SDS011;55970;50.064;8.228;2022-08-14T11:30:49;4.68;;;4.15;;
68931;SDS011;55970;50.064;8.228;2022-08-14T11:33:15;5.00;;;4.50;;
68931;SDS011;55970;50.064;8.228;2022-08-14T11:35:40;5.40;;;4.88;;
68931;SDS011;55970;50.064;8.228;2022-08-14T11:38:07;4.88;;;4.47;;
68931;SDS011;55970;50.064;8.228;2022-08-14T11:40:35;5.18;;;4.60;;
68931;SDS011;55970;50.064;8.228;2022-08-14T11:43:03;5.25;;;4.30;;
68931;SDS011;55970;50.064;8.228;2022-08-14T11:45:31;4.63;;;4.22;;
68931;SDS011;55970;50.064;8.228;2022-08-14T11:47:59;4.63;;;4.23;;
68931;SDS011;55970;50.064;8.228;2022-08-14T11:50:27;4.70;;;4.18;;
68931;SDS011;55970;50.064;8.228;2022-08-14T11:52:55;4.93;;;4.45;;
68931;SDS011;55970;50.064;8.228;2022-08-14T11:55:22;4.65;;;4.10;;
68931;SDS011;55970;50.064;8.228;2022-08-14T11:57:57;4.57;;;4.18;;
68931;SDS011;55970;50.064;8.228;2022-08-14T12:00:28;4.30;;;3.90;;
68931;SDS011;55970;50.064;8.228;2022-08-14T12:02:55;4.70;;;4.20;;
68931;SDS011;55970;50.064;8.228;2022-08-14T12:05:34;4.88;;;4.05;;
68931;SDS011;55970;50.064;8.228;2022-08-14T12:08:03;4.10;;;3.70;;
68931;SDS011;55970;50.064;8.228;2022-08-14T12:10:31;4.18;;;3.78;;
68931;SDS011;55970;50.064;8.228;2022-08-14T12:13:14;4.25;;;3.80;;
68931;SDS011;55970;50.064;8.228;2022-08-14T12:15:43;3.92;;;3.60;;
68931;SDS011;55970;50.064;8.228;2022-08-14T12:18:10;5.10;;;3.83;;
68931;SDS011;55970;50.064;8.228;2022-08-14T12:20:37;4.95;;;4.45;;
68931;SDS011;55970;50.064;8.228;2022-08-14T12:23:07;4.57;;;4.10;;
68931;SDS011;55970;50.064;8.228;2022-08-14T12:25:46;5.75;;;4.07;;
68931;SDS011;55970;50.064;8.228;2022-08-14T12:28:12;4.43;;;4.03;;
68931;SDS011;55970;50.064;8.228;2022-08-14T12:30:40;5.13;;;4.35;;
68931;SDS011;55970;50.064;8.228;2022-08-14T12:35:49;4.22;;;3.85;;
68931;SDS011;55970;50.064;8.228;2022-08-14T12:38:15;4.47;;;4.07;;
68931;SDS011;55970;50.064;8.228;2022-08-14T12:41:00;4.30;;;3.90;;
68931;SDS011;55970;50.064;8.228;2022-08-14T12:43:25;4.10;;;3.60;;
68931;SDS011;55970;50.064;8.228;2022-08-14T12:45:52;6.28;;;4.05;;
68931;SDS011;55970;50.064;8.228;2022-08-14T12:48:21;5.93;;;4.20;;
68931;SDS011;55970;50.064;8.228;2022-08-14T12:50:48;4.70;;;4.20;;
68931;SDS011;55970;50.064;8.228;2022-08-14T12:53:17;5.00;;;4.18;;
68931;SDS011;55970;50.064;8.228;2022-08-14T12:55:44;4.95;;;3.90;;
68931;SDS011;55970;50.064;8.228;2022-08-14T12:58:10;5.82;;;4.45;;
68931;SDS011;55970;50.064;8.228;2022-08-14T13:00:37;5.65;;;3.92;;
68931;SDS011;55970;50.064;8.228;2022-08-14T13:03:10;4.47;;;4.07;;
68931;SDS011;55970;50.064;8.228;2022-08-14T13:05:47;4.65;;;4.20;;
68931;SDS011;55970;50.064;8.228;2022-08-14T13:08:12;7.28;;;4.35;;
68931;SDS011;55970;50.064;8.228;2022-08-14T13:10:38;5.60;;;4.70;;
68931;SDS011;55970;50.064;8.228;2022-08-14T13:13:03;5.00;;;4.50;;
68931;SDS011;55970;50.064;8.228;2022-08-14T13:15:28;4.65;;;4.20;;
68931;SDS011;55970;50.064;8.228;2022-08-14T13:17:55;5.07;;;4.57;;
68931;SDS011;55970;50.064;8.228;2022-08-14T13:20:22;5.47;;;4.15;;
68931;SDS011;55970;50.064;8.228;2022-08-14T13:22:50;6.00;;;4.53;;
68931;SDS011;55970;50.064;8.228;2022-08-14T13:25:17;6.07;;;4.30;;
68931;SDS011;55970;50.064;8.228;2022-08-14T13:27:45;4.97;;;4.40;;
68931;SDS011;55970;50.064;8.228;2022-08-14T13:30:14;5.00;;;4.50;;
68931;SDS011;55970;50.064;8.228;2022-08-14T13:32:42;4.63;;;4.10;;
68931;SDS011;55970;50.064;8.228;2022-08-14T13:35:12;4.78;;;4.30;;
68931;SDS011;55970;50.064;8.228;2022-08-14T13:37:42;5.22;;;4.72;;
68931;SDS011;55970;50.064;8.228;2022-08-14T13:40:09;5.53;;;4.00;;
68931;SDS011;55970;50.064;8.228;2022-08-14T13:42:37;4.68;;;4.18;;
68931;SDS011;55970;50.064;8.228;2022-08-14T13:45:06;6.03;;;4.38;;
68931;SDS011;55970;50.064;8.228;2022-08-14T13:47:32;5.00;;;4.50;;
68931;SDS011;55970;50.064;8.228;2022-08-14T13:50:00;5.03;;;4.25;;
68931;SDS011;55970;50.064;8.228;2022-08-14T13:52:45;4.25;;;3.85;;
68931;SDS011;55970;50.064;8.228;2022-08-14T13:55:19;4.90;;;4.22;;
68931;SDS011;55970;50.064;8.228;2022-08-14T13:57:46;5.15;;;3.95;;
68931;SDS011;55970;50.064;8.228;2022-08-14T14:00:13;4.22;;;3.75;;
68931;SDS011;55970;50.064;8.228;2022-08-14T14:02:40;4.10;;;3.70;;
68931;SDS011;55970;50.064;8.228;2022-08-14T14:05:07;4.00;;;3.60;;
68931;SDS011;55970;50.064;8.228;2022-08-14T14:07:34;4.30;;;3.90;;
68931;SDS011;55970;50.064;8.228;2022-08-14T14:10:02;4.97;;;3.80;;
68931;SDS011;55970;50.064;8.228;2022-08-14T14:12:30;4.38;;;3.90;;
68931;SDS011;55970;50.064;8.228;2022-08-14T14:14:55;4.15;;;3.75;;
68931;SDS011;55970;50.064;8.228;2022-08-14T14:17:23;4.25;;;3.80;;
68931;SDS011;55970;50.064;8.228;2022-08-14T14:19:50;4.30;;;3.60;;
68931;SDS011;55970;50.064;8.228;2022-08-14T14:22:16;4.35;;;3.53;;
68931;SDS011;55970;50.064;8.228;2022-08-14T14:24:42;3.83;;;3.50;;
68931;SDS011;55970;50.064;8.228;2022-08-14T14:27:10;4.90;;;3.40;;
68931;SDS011;55970;50.064;8.228;2022-08-14T14:29:38;6.00;;;3.83;;
68931;SDS011;55970;50.064;8.228;2022-08-14T14:32:10;4.32;;;3.90;;
68931;SDS011;55970;50.064;8.228;2022-08-14T14:34:36;4.75;;;3.65;;
68931;SDS011;55970;50.064;8.228;2022-08-14T14:37:03;3.95;;;3.42;;
68931;SDS011;55970;50.064;8.228;2022-08-14T14:39:30;7.85;;;3.72;;
68931;SDS011;55970;50.064;8.228;2022-08-14T14:41:57;4.20;;;3.65;;
68931;SDS011;55970;50.064;8.228;2022-08-14T14:44:27;4.43;;;3.45;;
68931;SDS011;55970;50.064;8.228;2022-08-14T14:47:07;5.15;;;4.00;;
68931;SDS011;55970;50.064;8.228;2022-08-14T14:49:34;3.90;;;3.50;;
68931;SDS011;55970;50.064;8.228;2022-08-14T14:52:01;4.72;;;3.92;;
68931;SDS011;55970;50.064;8.228;2022-08-14T14:54:27;4.20;;;3.80;;
68931;SDS011;55970;50.064;8.228;2022-08-14T14:56:53;4.22;;;3.70;;
68931;SDS011;55970;50.064;8.228;2022-08-14T14:59:20;4.40;;;3.65;;
68931;SDS011;55970;50.064;8.228;2022-08-14T15:01:49;4.25;;;3.58;;
68931;SDS011;55970;50.064;8.228;2022-08-14T15:04:16;4.65;;;3.60;;
68931;SDS011;55970;50.064;8.228;2022-08-14T15:06:41;4.93;;;3.55;;
68931;SDS011;55970;50.064;8.228;2022-08-14T15:09:07;3.78;;;3.47;;
68931;SDS011;55970;50.064;8.228;2022-08-14T15:11:33;6.85;;;3.60;;
68931;SDS011;55970;50.064;8.228;2022-08-14T15:13:59;4.30;;;3.90;;
68931;SDS011;55970;50.064;8.228;2022-08-14T15:16:24;4.40;;;4.00;;
68931;SDS011;55970;50.064;8.228;2022-08-14T15:18:51;4.00;;;3.60;;
68931;SDS011;55970;50.064;8.228;2022-08-14T15:21:17;4.25;;;3.83;;
68931;SDS011;55970;50.064;8.228;2022-08-14T15:23:42;6.40;;;4.22;;
68931;SDS011;55970;50.064;8.228;2022-08-14T15:26:10;5.13;;;4.10;;
68931;SDS011;55970;50.064;8.228;2022-08-14T15:28:37;5.60;;;4.03;;
68931;SDS011;55970;50.064;8.228;2022-08-14T15:31:04;6.47;;;4.00;;